createdAt,value
2019-05-22T00:05:15.858Z,13.90
2019-05-22T00:11:20.526Z,13.90
2019-05-22T00:17:26.092Z,13.80
2019-05-22T00:23:30.146Z,13.80
2019-05-22T00:29:33.334Z,13.70
2019-05-22T00:35:37.138Z,13.70
2019-05-22T00:41:39.448Z,13.70
2019-05-22T00:47:41.589Z,13.60
2019-05-22T00:54:00.216Z,13.50
2019-05-22T01:00:04.681Z,13.50
2019-05-22T01:06:10.521Z,13.50
2019-05-22T01:12:18.965Z,13.40
2019-05-22T01:18:26.165Z,13.30
2019-05-22T01:24:28.497Z,13.30
2019-05-22T01:30:34.595Z,13.30
2019-05-22T01:36:39.071Z,13.20
2019-05-22T01:42:41.994Z,13.20
2019-05-22T01:48:44.597Z,13.30
2019-05-22T01:54:46.164Z,13.20
2019-05-22T02:00:51.994Z,13.20
2019-05-22T02:06:54.914Z,13.20
2019-05-22T02:12:59.366Z,13.20
2019-05-22T02:19:02.669Z,13.20
2019-05-22T02:25:05.840Z,13.20
2019-05-22T02:31:08.622Z,13.20
2019-05-22T02:37:11.146Z,13.20
2019-05-22T02:43:14.723Z,13.20
2019-05-22T02:49:16.877Z,13.10
2019-05-22T02:55:18.545Z,13.10
2019-05-22T03:01:20.138Z,13.20
2019-05-22T03:07:23.250Z,13.10
2019-05-22T03:13:54.309Z,13.10
2019-05-22T03:19:57.279Z,13.00
2019-05-22T03:26:00.038Z,13.00
2019-05-22T03:32:02.863Z,12.90
2019-05-22T03:38:05.694Z,12.90
2019-05-22T03:44:07.413Z,12.80
2019-05-22T03:50:11.298Z,12.80
2019-05-22T03:56:14.559Z,12.80
2019-05-22T04:02:16.760Z,12.80
2019-05-22T04:08:20.706Z,12.80
2019-05-22T04:14:26.054Z,12.80
2019-05-22T04:20:33.161Z,12.70
2019-05-22T04:26:37.566Z,12.70
2019-05-22T04:32:43.547Z,12.70
2019-05-22T04:38:45.025Z,12.60
2019-05-22T04:45:08.597Z,12.60
2019-05-22T04:51:22.007Z,12.60
2019-05-22T04:57:24.517Z,12.50
2019-05-22T05:03:28.735Z,12.50
2019-05-22T05:09:31.044Z,12.50
2019-05-22T05:15:32.727Z,12.40
2019-05-22T05:21:36.452Z,12.40
2019-05-22T05:27:38.468Z,12.50
2019-05-22T05:33:49.898Z,12.60
2019-05-22T05:40:07.342Z,12.60
2019-05-22T05:46:11.842Z,12.70
2019-05-22T05:52:15.400Z,12.70
2019-05-22T05:58:22.983Z,12.70
2019-05-22T06:04:34.855Z,12.80
2019-05-22T06:10:35.662Z,12.70
2019-05-22T06:16:56.686Z,12.70
2019-05-22T06:23:21.836Z,12.80
2019-05-22T06:29:28.014Z,12.70
2019-05-22T06:35:33.299Z,12.80
2019-05-22T06:41:37.257Z,12.80
2019-05-22T06:47:38.863Z,12.70
2019-05-22T06:53:40.521Z,12.90
2019-05-22T06:59:44.207Z,12.80
2019-05-22T07:05:46.002Z,12.70
2019-05-22T07:11:48.255Z,12.50
2019-05-22T07:17:51.985Z,12.40
2019-05-22T07:23:53.722Z,12.50
2019-05-22T07:29:55.695Z,12.50
2019-05-22T07:36:09.566Z,12.50
2019-05-22T07:42:02.452Z,12.50
2019-05-22T07:48:05.143Z,12.60
2019-05-22T07:54:06.757Z,12.70
2019-05-22T08:00:08.838Z,12.80
2019-05-22T08:06:11.220Z,13.00
2019-05-22T08:12:13.549Z,13.10
2019-05-22T08:18:16.142Z,13.20
2019-05-22T08:24:17.889Z,13.20
2019-05-22T08:30:19.568Z,13.30
2019-05-22T08:36:21.244Z,13.30
2019-05-22T08:42:23.400Z,13.00
2019-05-22T08:48:25.445Z,12.70
2019-05-22T08:54:30.062Z,12.60
2019-05-22T09:00:32.133Z,12.80
2019-05-22T09:06:34.121Z,13.00
2019-05-22T09:12:35.987Z,13.00
2019-05-22T09:18:39.054Z,12.80
2019-05-22T09:24:40.875Z,12.80
2019-05-22T09:30:42.686Z,12.80
2019-05-22T09:36:44.282Z,13.00
2019-05-22T09:42:46.447Z,13.10
2019-05-22T09:48:48.422Z,13.30
2019-05-22T09:54:50.035Z,13.30
2019-05-22T10:00:57.554Z,13.60
2019-05-22T10:07:11.371Z,13.80
2019-05-22T17:11:12.511Z,19.60
2019-05-22T17:17:18.651Z,20.20
2019-05-22T17:23:21.865Z,21.80
2019-05-22T17:29:24.290Z,22.30
2019-05-22T17:35:26.282Z,22.80
2019-05-22T17:41:30.913Z,23.90
2019-05-22T17:47:32.699Z,24.50
2019-05-22T17:53:36.507Z,24.90
2019-05-22T17:59:39.429Z,25.10
2019-05-22T18:05:41.352Z,25.00
2019-05-22T18:11:42.890Z,24.50
2019-05-22T18:17:44.851Z,22.40
2019-05-22T18:23:46.848Z,20.40
2019-05-22T18:29:48.402Z,18.60
2019-05-22T18:35:51.414Z,17.40
2019-05-22T18:41:53.315Z,17.60
2019-05-22T18:47:59.110Z,16.30
2019-05-22T18:54:00.735Z,14.80
2019-05-22T19:00:06.116Z,13.50
2019-05-22T19:06:09.262Z,12.70
2019-05-22T19:12:11.461Z,12.00
2019-05-22T19:18:41.376Z,11.60
2019-05-22T19:31:06.363Z,10.70
2019-05-22T19:37:08.187Z,10.30
2019-05-22T19:43:11.359Z,10.10
2019-05-22T19:49:14.155Z,10.00
2019-05-22T19:55:18.536Z,9.60
2019-05-22T20:01:21.983Z,9.40
2019-05-22T20:07:23.565Z,9.40
2019-05-22T20:13:25.843Z,9.30
2019-05-22T20:19:27.437Z,9.20
2019-05-22T20:25:29.026Z,9.10
2019-05-22T20:31:30.715Z,9.10
2019-05-22T20:37:42.191Z,8.80
2019-05-22T20:43:44.086Z,8.70
2019-05-22T20:49:47.342Z,8.60
2019-05-22T20:55:50.180Z,8.40
2019-05-22T21:01:52.137Z,8.40
2019-05-22T21:07:57.819Z,8.30
2019-05-22T21:14:00.608Z,8.10
2019-05-22T21:20:06.773Z,8.00
2019-05-22T21:26:10.642Z,7.90
2019-05-22T21:32:13.344Z,7.90
2019-05-22T21:38:15.821Z,7.70
2019-05-22T21:44:17.775Z,7.70
2019-05-22T21:50:20.259Z,7.60
2019-05-22T21:56:21.803Z,7.50
2019-05-22T22:02:31.931Z,7.50
2019-05-22T22:08:34.882Z,7.40
2019-05-22T22:14:36.909Z,7.30
2019-05-22T22:20:38.661Z,7.20
2019-05-22T22:26:41.042Z,7.10
2019-05-22T22:32:43.779Z,7.00
2019-05-22T22:38:45.552Z,6.80
2019-05-22T22:44:51.226Z,6.70
2019-05-22T22:50:54.614Z,6.80
2019-05-22T22:56:56.243Z,6.80
2019-05-22T23:02:57.971Z,6.80
2019-05-22T23:09:00.176Z,6.80
2019-05-22T23:15:02.199Z,6.60
2019-05-22T23:21:04.267Z,6.60
2019-05-22T23:27:06.522Z,6.60
2019-05-22T23:33:09.724Z,6.50
2019-05-22T23:39:14.249Z,6.50
2019-05-22T23:45:18.655Z,6.30
2019-05-22T23:51:35.243Z,6.30
2019-05-22T23:57:51.778Z,6.10
